sensor_id;sensor_type;location;lat;lon;timestamp;pressure;altitude;pressure_sealevel;temperature;humidity
14041;BME280;7095;51.388;6.196;2023-02-14T00:00:00;65284.88;;;-145.32;100.00
14041;BME280;7095;51.388;6.196;2023-02-14T00:02:35;67216.56;;;-145.32;100.00
14041;BME280;7095;51.388;6.196;2023-02-14T00:05:04;68678.03;;;-145.32;100.00
14041;BME280;7095;51.388;6.196;2023-02-14T00:07:33;69171.31;;;-145.32;100.00
14041;BME280;7095;51.388;6.196;2023-02-14T00:10:01;70419.81;;;-145.32;100.00
14041;BME280;7095;51.388;6.196;2023-02-14T00:12:30;71954.59;;;-145.32;100.00
14041;BME280;7095;51.388;6.196;2023-02-14T00:14:58;72978.16;;;-145.32;100.00
14041;BME280;7095;51.388;6.196;2023-02-14T00:17:45;73746.06;;;-145.32;100.00
14041;BME280;7095;51.388;6.196;2023-02-14T00:20:14;73490.06;;;-145.32;100.00
14041;BME280;7095;51.388;6.196;2023-02-14T00:22:42;75538.44;;;-145.32;100.00
14041;BME280;7095;51.388;6.196;2023-02-14T00:25:11;76050.72;;;-145.32;100.00
14041;BME280;7095;51.388;6.196;2023-02-14T00:27:39;74770.16;;;-145.32;100.00
14041;BME280;7095;51.388;6.196;2023-02-14T00:30:09;75794.56;;;-145.32;100.00
14041;BME280;7095;51.388;6.196;2023-02-14T00:32:38;75794.56;;;-145.32;100.00
14041;BME280;7095;51.388;6.196;2023-02-14T00:35:09;76563.09;;;-145.32;100.00
14041;BME280;7095;51.388;6.196;2023-02-14T00:37:40;76050.72;;;-145.32;100.00
14041;BME280;7095;51.388;6.196;2023-02-14T00:40:08;79895.28;;;-145.32;100.00
14041;BME280;7095;51.388;6.196;2023-02-14T00:42:38;80664.72;;;-145.32;100.00
14041;BME280;7095;51.388;6.196;2023-02-14T00:45:08;79382.44;;;-145.32;100.00
14041;BME280;7095;51.388;6.196;2023-02-14T00:47:36;78613.28;;;-145.32;100.00
14041;BME280;7095;51.388;6.196;2023-02-14T00:50:05;76819.28;;;-145.32;100.00
14041;BME280;7095;51.388;6.196;2023-02-14T00:52:35;77588.03;;;-145.32;100.00
14041;BME280;7095;51.388;6.196;2023-02-14T00:55:04;80664.72;;;-145.32;100.00
14041;BME280;7095;51.388;6.196;2023-02-14T00:57:32;81690.91;;;-145.32;100.00
14041;BME280;7095;51.388;6.196;2023-02-14T01:00:04;82717.38;;;-145.32;100.00
14041;BME280;7095;51.388;6.196;2023-02-14T01:02:33;83487.44;;;-145.32;100.00
14041;BME280;7095;51.388;6.196;2023-02-14T01:05:01;84771.25;;;-145.32;100.00
14041;BME280;7095;51.388;6.196;2023-02-14T01:07:30;86055.56;;;-145.32;100.00
14041;BME280;7095;51.388;6.196;2023-02-14T01:10:00;85028.06;;;-145.32;100.00
14041;BME280;7095;51.388;6.196;2023-02-14T01:12:29;84257.66;;;-145.32;100.00
14041;BME280;7095;51.388;6.196;2023-02-14T01:14:57;86055.56;;;-145.32;100.00
14041;BME280;7095;51.388;6.196;2023-02-14T01:17:26;86569.41;;;-145.32;100.00
14041;BME280;7095;51.388;6.196;2023-02-14T01:19:55;86055.56;;;-145.32;100.00
14041;BME280;7095;51.388;6.196;2023-02-14T01:22:23;87597.34;;;-145.32;100.00
14041;BME280;7095;51.388;6.196;2023-02-14T01:24:52;86826.34;;;-145.32;100.00
14041;BME280;7095;51.388;6.196;2023-02-14T01:27:22;86055.56;;;-145.32;100.00
14041;BME280;7095;51.388;6.196;2023-02-14T01:29:50;87340.31;;;-145.32;100.00
14041;BME280;7095;51.388;6.196;2023-02-14T01:32:19;87597.34;;;-145.32;100.00
14041;BME280;7095;51.388;6.196;2023-02-14T01:34:49;87340.31;;;-145.32;100.00
14041;BME280;7095;51.388;6.196;2023-02-14T01:37:17;87854.38;;;-145.32;100.00
14041;BME280;7095;51.388;6.196;2023-02-14T01:39:45;88882.69;;;-145.32;100.00
14041;BME280;7095;51.388;6.196;2023-02-14T01:42:14;88111.41;;;-145.32;100.00
14041;BME280;7095;51.388;6.196;2023-02-14T01:45:03;88368.50;;;-145.32;100.00
14041;BME280;7095;51.388;6.196;2023-02-14T01:47:37;87597.34;;;-145.32;100.00
14041;BME280;7095;51.388;6.196;2023-02-14T01:50:09;87597.34;;;-145.32;100.00
14041;BME280;7095;51.388;6.196;2023-02-14T01:52:42;88111.41;;;-145.32;100.00
14041;BME280;7095;51.388;6.196;2023-02-14T01:55:16;89911.31;;;-145.32;100.00
14041;BME280;7095;51.388;6.196;2023-02-14T01:57:48;89911.31;;;-145.32;100.00
14041;BME280;7095;51.388;6.196;2023-02-14T02:00:20;89654.13;;;-145.32;100.00
14041;BME280;7095;51.388;6.196;2023-02-14T02:03:07;89654.13;;;-145.32;100.00
14041;BME280;7095;51.388;6.196;2023-02-14T02:05:38;89396.97;;;-145.32;100.00
14041;BME280;7095;51.388;6.196;2023-02-14T02:08:08;89911.31;;;-145.32;100.00
14041;BME280;7095;51.388;6.196;2023-02-14T02:10:37;90682.97;;;-145.32;100.00
14041;BME280;7095;51.388;6.196;2023-02-14T02:13:07;91454.81;;;-145.32;100.00
14041;BME280;7095;51.388;6.196;2023-02-14T02:15:49;90682.97;;;-145.32;100.00
14041;BME280;7095;51.388;6.196;2023-02-14T02:18:24;90168.50;;;-145.32;100.00
14041;BME280;7095;51.388;6.196;2023-02-14T02:24:16;88882.69;;;-145.32;100.00
14041;BME280;7095;51.388;6.196;2023-02-14T02:27:23;89654.13;;;-145.32;100.00
14041;BME280;7095;51.388;6.196;2023-02-14T02:30:18;90682.97;;;-145.32;100.00
14041;BME280;7095;51.388;6.196;2023-02-14T02:36:06;88111.41;;;-145.32;100.00
14041;BME280;7095;51.388;6.196;2023-02-14T02:38:52;87597.34;;;-145.32;100.00
14041;BME280;7095;51.388;6.196;2023-02-14T02:41:32;87854.38;;;-145.32;100.00
14041;BME280;7095;51.388;6.196;2023-02-14T02:44:12;88625.56;;;-145.32;100.00
14041;BME280;7095;51.388;6.196;2023-02-14T02:46:51;88625.56;;;-145.32;100.00
14041;BME280;7095;51.388;6.196;2023-02-14T02:49:30;88625.56;;;-145.32;100.00
14041;BME280;7095;51.388;6.196;2023-02-14T02:52:23;86569.41;;;-145.32;100.00
14041;BME280;7095;51.388;6.196;2023-02-14T02:55:16;85028.06;;;-145.32;100.00
14041;BME280;7095;51.388;6.196;2023-02-14T02:57:48;85798.66;;;-145.32;100.00
14041;BME280;7095;51.388;6.196;2023-02-14T03:00:19;84771.25;;;-145.32;100.00
14041;BME280;7095;51.388;6.196;2023-02-14T03:02:51;84771.25;;;-145.32;100.00
14041;BME280;7095;51.388;6.196;2023-02-14T03:05:37;86055.56;;;-145.32;100.00
14041;BME280;7095;51.388;6.196;2023-02-14T03:08:08;87083.34;;;-145.32;100.00
14041;BME280;7095;51.388;6.196;2023-02-14T03:10:41;88368.50;;;-145.32;100.00
14041;BME280;7095;51.388;6.196;2023-02-14T03:13:33;89911.31;;;-145.32;100.00
14041;BME280;7095;51.388;6.196;2023-02-14T03:16:25;89396.97;;;-145.32;100.00
14041;BME280;7095;51.388;6.196;2023-02-14T03:19:41;88368.50;;;-145.32;100.00
14041;BME280;7095;51.388;6.196;2023-02-14T03:22:42;89396.97;;;-145.32;100.00
14041;BME280;7095;51.388;6.196;2023-02-14T03:25:23;89396.97;;;-145.32;100.00
14041;BME280;7095;51.388;6.196;2023-02-14T03:28:01;90682.97;;;-145.32;100.00
14041;BME280;7095;51.388;6.196;2023-02-14T03:30:39;90940.22;;;-145.32;100.00
14041;BME280;7095;51.388;6.196;2023-02-14T03:33:19;91197.50;;;-145.32;100.00
14041;BME280;7095;51.388;6.196;2023-02-14T03:35:54;91969.47;;;-145.32;100.00
14041;BME280;7095;51.388;6.196;2023-02-14T03:38:32;93256.44;;;-145.32;100.00
14041;BME280;7095;51.388;6.196;2023-02-14T03:41:06;91969.47;;;-145.32;100.00
14041;BME280;7095;51.388;6.196;2023-02-14T03:43:43;91454.81;;;-145.32;100.00
14041;BME280;7095;51.388;6.196;2023-02-14T03:46:15;91197.50;;;-145.32;100.00
14041;BME280;7095;51.388;6.196;2023-02-14T03:48:46;90940.22;;;-145.32;100.00
14041;BME280;7095;51.388;6.196;2023-02-14T03:51:17;89654.13;;;-145.32;100.00
14041;BME280;7095;51.388;6.196;2023-02-14T03:53:51;89139.81;;;-145.32;100.00
14041;BME280;7095;51.388;6.196;2023-02-14T03:56:28;89396.97;;;-145.32;100.00
14041;BME280;7095;51.388;6.196;2023-02-14T03:59:05;88882.69;;;-145.32;100.00
14041;BME280;7095;51.388;6.196;2023-02-14T04:01:37;89139.81;;;-145.32;100.00
14041;BME280;7095;51.388;6.196;2023-02-14T04:04:07;89911.31;;;-145.32;100.00
14041;BME280;7095;51.388;6.196;2023-02-14T04:06:36;89396.97;;;-145.32;100.00
14041;BME280;7095;51.388;6.196;2023-02-14T04:09:04;89396.97;;;-145.32;100.00
14041;BME280;7095;51.388;6.196;2023-02-14T04:11:34;88625.56;;;-145.32;100.00
14041;BME280;7095;51.388;6.196;2023-02-14T04:14:04;88625.56;;;-145.32;100.00
14041;BME280;7095;51.388;6.196;2023-02-14T04:16:33;89139.81;;;-145.32;100.00
14041;BME280;7095;51.388;6.196;2023-02-14T04:19:22;88882.69;;;-145.32;100.00
14041;BME280;7095;51.388;6.196;2023-02-14T04:21:49;89139.81;;;-145.32;100.00
14041;BME280;7095;51.388;6.196;2023-02-14T04:24:18;87597.34;;;-145.32;100.00
14041;BME280;7095;51.388;6.196;2023-02-14T04:26:48;88111.41;;;-145.32;100.00
14041;BME280;7095;51.388;6.196;2023-02-14T04:29:39;89139.81;;;-145.32;100.00
14041;BME280;7095;51.388;6.196;2023-02-14T04:32:10;90168.50;;;-145.32;100.00
14041;BME280;7095;51.388;6.196;2023-02-14T04:34:39;89396.97;;;-145.32;100.00
14041;BME280;7095;51.388;6.196;2023-02-14T04:37:07;88882.69;;;-145.32;100.00
14041;BME280;7095;51.388;6.196;2023-02-14T04:39:36;89139.81;;;-145.32;100.00
14041;BME280;7095;51.388;6.196;2023-02-14T04:42:06;89396.97;;;-145.32;100.00
14041;BME280;7095;51.388;6.196;2023-02-14T04:44:35;89654.13;;;-145.32;100.00
14041;BME280;7095;51.388;6.196;2023-02-14T04:47:05;90168.50;;;-145.32;100.00
14041;BME280;7095;51.388;6.196;2023-02-14T04:49:33;89654.13;;;-145.32;100.00
14041;BME280;7095;51.388;6.196;2023-02-14T04:52:02;89911.31;;;-145.32;100.00
14041;BME280;7095;51.388;6.196;2023-02-14T04:54:31;90168.50;;;-145.32;100.00
14041;BME280;7095;51.388;6.196;2023-02-14T04:57:00;90425.72;;;-145.32;100.00
14041;BME280;7095;51.388;6.196;2023-02-14T04:59:30;89911.31;;;-145.32;100.00
14041;BME280;7095;51.388;6.196;2023-02-14T05:01:58;89396.97;;;-145.32;100.00
14041;BME280;7095;51.388;6.196;2023-02-14T05:04:26;88882.69;;;-145.32;100.00
14041;BME280;7095;51.388;6.196;2023-02-14T05:06:55;88368.50;;;-145.32;100.00
14041;BME280;7095;51.388;6.196;2023-02-14T05:09:23;87597.34;;;-145.32;100.00
14041;BME280;7095;51.388;6.196;2023-02-14T05:11:51;86826.34;;;-145.32;100.00
14041;BME280;7095;51.388;6.196;2023-02-14T05:14:20;86055.56;;;-145.32;100.00
14041;BME280;7095;51.388;6.196;2023-02-14T05:16:50;89139.81;;;-145.32;100.00
14041;BME280;7095;51.388;6.196;2023-02-14T05:19:18;89396.97;;;-145.32;100.00
14041;BME280;7095;51.388;6.196;2023-02-14T05:21:47;86826.34;;;-145.32;100.00
14041;BME280;7095;51.388;6.196;2023-02-14T05:24:15;86055.56;;;-145.32;100.00
14041;BME280;7095;51.388;6.196;2023-02-14T05:26:44;85541.78;;;-145.32;100.00
14041;BME280;7095;51.388;6.196;2023-02-14T05:29:12;85541.78;;;-145.32;100.00
14041;BME280;7095;51.388;6.196;2023-02-14T05:31:40;86055.56;;;-145.32;100.00
14041;BME280;7095;51.388;6.196;2023-02-14T05:34:11;86055.56;;;-145.32;100.00
14041;BME280;7095;51.388;6.196;2023-02-14T05:36:39;87083.34;;;-145.32;100.00
14041;BME280;7095;51.388;6.196;2023-02-14T05:39:08;85541.78;;;-145.32;100.00
14041;BME280;7095;51.388;6.196;2023-02-14T05:41:37;86312.47;;;-145.32;100.00
14041;BME280;7095;51.388;6.196;2023-02-14T05:44:04;85284.91;;;-145.32;100.00
14041;BME280;7095;51.388;6.196;2023-02-14T05:46:32;85028.06;;;-145.32;100.00
14041;BME280;7095;51.388;6.196;2023-02-14T05:49:01;85541.78;;;-145.32;100.00
14041;BME280;7095;51.388;6.196;2023-02-14T05:51:31;85541.78;;;-145.32;100.00
14041;BME280;7095;51.388;6.196;2023-02-14T05:53:59;85541.78;;;-145.32;100.00
14041;BME280;7095;51.388;6.196;2023-02-14T05:56:28;84000.91;;;-145.32;100.00
14041;BME280;7095;51.388;6.196;2023-02-14T05:58:56;84000.91;;;-145.32;100.00
14041;BME280;7095;51.388;6.196;2023-02-14T06:01:24;84257.66;;;-145.32;100.00
14041;BME280;7095;51.388;6.196;2023-02-14T06:03:53;84000.91;;;-145.32;100.00
14041;BME280;7095;51.388;6.196;2023-02-14T06:06:22;85028.06;;;-145.32;100.00
14041;BME280;7095;51.388;6.196;2023-02-14T06:08:52;85798.66;;;-145.32;100.00
14041;BME280;7095;51.388;6.196;2023-02-14T06:11:20;85284.91;;;-145.32;100.00
14041;BME280;7095;51.388;6.196;2023-02-14T06:13:49;86055.56;;;-145.32;100.00
14041;BME280;7095;51.388;6.196;2023-02-14T06:16:17;85028.06;;;-145.32;100.00
14041;BME280;7095;51.388;6.196;2023-02-14T06:18:45;83230.72;;;-145.32;100.00
14041;BME280;7095;51.388;6.196;2023-02-14T06:21:14;81947.50;;;-145.32;100.00
14041;BME280;7095;51.388;6.196;2023-02-14T06:23:42;81177.78;;;-145.32;100.00
14041;BME280;7095;51.388;6.196;2023-02-14T06:26:12;81947.50;;;-145.32;100.00
14041;BME280;7095;51.388;6.196;2023-02-14T06:28:41;82204.09;;;-145.32;100.00
14041;BME280;7095;51.388;6.196;2023-02-14T06:31:14;81947.50;;;-145.32;100.00
14041;BME280;7095;51.388;6.196;2023-02-14T06:33:43;81947.50;;;-145.32;100.00
14041;BME280;7095;51.388;6.196;2023-02-14T06:36:12;81434.31;;;-145.32;100.00
14041;BME280;7095;51.388;6.196;2023-02-14T06:38:40;81690.91;;;-145.32;100.00
14041;BME280;7095;51.388;6.196;2023-02-14T06:41:10;82974.03;;;-145.32;100.00
14041;BME280;7095;51.388;6.196;2023-02-14T06:43:40;84000.91;;;-145.32;100.00
14041;BME280;7095;51.388;6.196;2023-02-14T06:46:08;85028.06;;;-145.32;100.00
14041;BME280;7095;51.388;6.196;2023-02-14T06:48:37;83744.16;;;-145.32;100.00
14041;BME280;7095;51.388;6.196;2023-02-14T06:51:06;82717.38;;;-145.32;100.00
14041;BME280;7095;51.388;6.196;2023-02-14T06:53:34;82204.09;;;-145.32;100.00
14041;BME280;7095;51.388;6.196;2023-02-14T06:56:03;82460.72;;;-145.32;100.00
14041;BME280;7095;51.388;6.196;2023-02-14T06:58:31;82974.03;;;-145.32;100.00
14041;BME280;7095;51.388;6.196;2023-02-14T07:01:01;81177.78;;;-145.32;100.00
14041;BME280;7095;51.388;6.196;2023-02-14T07:03:30;80921.25;;;-145.32;100.00
14041;BME280;7095;51.388;6.196;2023-02-14T07:05:59;82460.72;;;-145.32;100.00
14041;BME280;7095;51.388;6.196;2023-02-14T07:08:27;81947.50;;;-145.32;100.00
14041;BME280;7095;51.388;6.196;2023-02-14T07:10:56;81947.50;;;-145.32;100.00
14041;BME280;7095;51.388;6.196;2023-02-14T07:13:25;82974.03;;;-145.32;100.00
14041;BME280;7095;51.388;6.196;2023-02-14T07:15:53;84257.66;;;-145.32;100.00
14041;BME280;7095;51.388;6.196;2023-02-14T07:18:23;83744.16;;;-145.32;100.00
14041;BME280;7095;51.388;6.196;2023-02-14T07:20:52;85798.66;;;-145.32;100.00
14041;BME280;7095;51.388;6.196;2023-02-14T07:23:20;86826.34;;;-145.32;100.00
14041;BME280;7095;51.388;6.196;2023-02-14T07:25:49;86312.47;;;-145.32;100.00
14041;BME280;7095;51.388;6.196;2023-02-14T07:28:18;87083.34;;;-145.32;100.00
14041;BME280;7095;51.388;6.196;2023-02-14T07:30:46;85798.66;;;-145.32;100.00
14041;BME280;7095;51.388;6.196;2023-02-14T07:33:15;84771.25;;;-145.32;100.00
14041;BME280;7095;51.388;6.196;2023-02-14T07:35:45;85028.06;;;-145.32;100.00
14041;BME280;7095;51.388;6.196;2023-02-14T07:38:13;86055.56;;;-145.32;100.00
14041;BME280;7095;51.388;6.196;2023-02-14T07:40:41;86312.47;;;-145.32;100.00
14041;BME280;7095;51.388;6.196;2023-02-14T07:43:10;87083.34;;;-145.32;100.00
14041;BME280;7095;51.388;6.196;2023-02-14T07:45:38;87597.34;;;-145.32;100.00
14041;BME280;7095;51.388;6.196;2023-02-14T07:48:07;89139.81;;;-145.32;100.00
14041;BME280;7095;51.388;6.196;2023-02-14T07:50:35;88882.69;;;-145.32;100.00
14041;BME280;7095;51.388;6.196;2023-02-14T07:53:05;90168.50;;;-145.32;100.00
14041;BME280;7095;51.388;6.196;2023-02-14T07:55:34;89654.13;;;-145.32;100.00
14041;BME280;7095;51.388;6.196;2023-02-14T07:58:03;89396.97;;;-145.32;100.00
14041;BME280;7095;51.388;6.196;2023-02-14T08:00:31;89911.31;;;-145.32;100.00
14041;BME280;7095;51.388;6.196;2023-02-14T08:03:00;90682.97;;;-145.32;100.00
14041;BME280;7095;51.388;6.196;2023-02-14T08:05:28;91454.81;;;-145.32;100.00
14041;BME280;7095;51.388;6.196;2023-02-14T08:07:57;92226.81;;;-145.32;100.00
14041;BME280;7095;51.388;6.196;2023-02-14T08:10:27;92999.00;;;-145.32;100.00
14041;BME280;7095;51.388;6.196;2023-02-14T08:12:56;93513.91;;;-145.32;100.00
14041;BME280;7095;51.388;6.196;2023-02-14T08:15:29;94028.84;;;-145.32;100.00
14041;BME280;7095;51.388;6.196;2023-02-14T08:18:16;94801.44;;;-145.32;100.00
14041;BME280;7095;51.388;6.196;2023-02-14T08:20:45;96347.13;;;-145.32;100.00
14041;BME280;7095;51.388;6.196;2023-02-14T08:23:16;96604.81;;;-145.32;100.00
14041;BME280;7095;51.388;6.196;2023-02-14T08:25:47;96862.50;;;-145.32;100.00
14041;BME280;7095;51.388;6.196;2023-02-14T08:28:17;96604.81;;;-145.32;100.00
14041;BME280;7095;51.388;6.196;2023-02-14T08:30:48;96862.50;;;-145.32;100.00
14041;BME280;7095;51.388;6.196;2023-02-14T08:33:17;96862.50;;;-145.32;100.00
14041;BME280;7095;51.388;6.196;2023-02-14T08:35:46;97635.72;;;-145.32;100.00
14041;BME280;7095;51.388;6.196;2023-02-14T08:38:14;97893.50;;;-145.32;100.00
14041;BME280;7095;51.388;6.196;2023-02-14T08:40:43;98409.13;;;-145.32;100.00
14041;BME280;7095;51.388;6.196;2023-02-14T08:43:13;98666.94;;;-145.32;100.00
14041;BME280;7095;51.388;6.196;2023-02-14T08:45:42;98409.13;;;-145.32;100.00
14041;BME280;7095;51.388;6.196;2023-02-14T08:48:11;99698.47;;;-145.32;100.00
14041;BME280;7095;51.388;6.196;2023-02-14T08:50:40;99182.69;;;-145.32;100.00
14041;BME280;7095;51.388;6.196;2023-02-14T08:53:10;98409.13;;;-145.32;100.00
14041;BME280;7095;51.388;6.196;2023-02-14T08:55:39;98409.13;;;-145.32;100.00
14041;BME280;7095;51.388;6.196;2023-02-14T08:58:08;98151.31;;;-145.32;100.00
14041;BME280;7095;51.388;6.196;2023-02-14T09:00:38;98151.31;;;-145.32;100.00
14041;BME280;7095;51.388;6.196;2023-02-14T09:03:06;99440.56;;;-145.32;100.00
14041;BME280;7095;51.388;6.196;2023-02-14T09:05:36;99440.56;;;-145.32;100.00
14041;BME280;7095;51.388;6.196;2023-02-14T09:08:05;99440.56;;;-145.32;100.00
14041;BME280;7095;51.388;6.196;2023-02-14T09:10:33;99440.56;;;-145.32;100.00
14041;BME280;7095;51.388;6.196;2023-02-14T09:13:02;99698.47;;;-145.32;100.00
14041;BME280;7095;51.388;6.196;2023-02-14T09:15:30;100214.34;;;-145.32;100.00
14041;BME280;7095;51.388;6.196;2023-02-14T09:18:01;100472.31;;;-145.32;100.00
14041;BME280;7095;51.388;6.196;2023-02-14T09:20:29;100988.31;;;-145.32;100.00
14041;BME280;7095;51.388;6.196;2023-02-14T09:22:58;100730.31;;;-145.32;100.00
14041;BME280;7095;51.388;6.196;2023-02-14T09:25:26;100730.31;;;-145.32;100.00
14041;BME280;7095;51.388;6.196;2023-02-14T09:27:56;100472.31;;;-145.32;100.00
14041;BME280;7095;51.388;6.196;2023-02-14T09:30:24;100472.31;;;-145.32;100.00
14041;BME280;7095;51.388;6.196;2023-02-14T09:32:53;100214.34;;;-145.32;100.00
14041;BME280;7095;51.388;6.196;2023-02-14T09:35:23;100988.31;;;-145.32;100.00
14041;BME280;7095;51.388;6.196;2023-02-14T09:38:10;101762.47;;;-145.32;100.00
14041;BME280;7095;51.388;6.196;2023-02-14T09:40:45;101246.34;;;-145.32;100.00
14041;BME280;7095;51.388;6.196;2023-02-14T09:43:20;101246.34;;;-145.32;100.00
14041;BME280;7095;51.388;6.196;2023-02-14T09:45:53;101762.47;;;-145.32;100.00
14041;BME280;7095;51.388;6.196;2023-02-14T09:48:26;101246.34;;;-145.32;100.00
14041;BME280;7095;51.388;6.196;2023-02-14T09:51:02;99956.41;;;-145.32;100.00
14041;BME280;7095;51.388;6.196;2023-02-14T09:53:34;99440.56;;;-145.32;100.00
14041;BME280;7095;51.388;6.196;2023-02-14T09:56:09;99182.69;;;-145.32;100.00
14041;BME280;7095;51.388;6.196;2023-02-14T09:58:44;99698.47;;;-145.32;100.00
14041;BME280;7095;51.388;6.196;2023-02-14T10:01:20;99440.56;;;-145.32;100.00
14041;BME280;7095;51.388;6.196;2023-02-14T10:04:12;99182.69;;;-145.32;100.00
14041;BME280;7095;51.388;6.196;2023-02-14T10:06:50;98924.81;;;-145.32;100.00
14041;BME280;7095;51.388;6.196;2023-02-14T10:09:30;98924.81;;;-145.32;100.00
14041;BME280;7095;51.388;6.196;2023-02-14T10:12:01;98924.81;;;-145.32;100.00
14041;BME280;7095;51.388;6.196;2023-02-14T10:14:31;98666.94;;;-145.32;100.00
14041;BME280;7095;51.388;6.196;2023-02-14T10:17:09;98924.81;;;-145.32;100.00
14041;BME280;7095;51.388;6.196;2023-02-14T10:19:43;99182.69;;;-145.32;100.00
14041;BME280;7095;51.388;6.196;2023-02-14T10:22:18;99182.69;;;-145.32;100.00
14041;BME280;7095;51.388;6.196;2023-02-14T10:24:50;98409.13;;;-145.32;100.00
14041;BME280;7095;51.388;6.196;2023-02-14T10:27:28;97893.50;;;-145.32;100.00
14041;BME280;7095;51.388;6.196;2023-02-14T10:29:57;96089.47;;;-145.32;100.00
14041;BME280;7095;51.388;6.196;2023-02-14T10:32:29;95574.19;;;-145.32;100.00
14041;BME280;7095;51.388;6.196;2023-02-14T10:35:03;92999.00;;;-145.32;100.00
14041;BME280;7095;51.388;6.196;2023-02-14T10:37:49;91454.81;;;-145.32;100.00
14041;BME280;7095;51.388;6.196;2023-02-14T10:40:42;90940.22;;;-145.32;100.00
14041;BME280;7095;51.388;6.196;2023-02-14T10:43:23;89139.81;;;-145.32;100.00
14041;BME280;7095;51.388;6.196;2023-02-14T10:46:02;84000.91;;;-145.32;100.00
14041;BME280;7095;51.388;6.196;2023-02-14T10:48:43;84000.91;;;-145.32;100.00
14041;BME280;7095;51.388;6.196;2023-02-14T10:51:15;82204.09;;;-145.32;100.00
14041;BME280;7095;51.388;6.196;2023-02-14T10:53:56;78613.28;;;-145.32;100.00
14041;BME280;7095;51.388;6.196;2023-02-14T10:56:33;82974.03;;;-145.32;100.00
14041;BME280;7095;51.388;6.196;2023-02-14T10:59:10;82204.09;;;-145.32;100.00
14041;BME280;7095;51.388;6.196;2023-02-14T11:01:42;77075.53;;;-145.32;100.00
14041;BME280;7095;51.388;6.196;2023-02-14T11:04:12;71954.59;;;-145.32;100.00
14041;BME280;7095;51.388;6.196;2023-02-14T11:06:43;74258.06;;;-145.32;100.00
14041;BME280;7095;51.388;6.196;2023-02-14T11:09:16;77588.03;;;-145.32;100.00
14041;BME280;7095;51.388;6.196;2023-02-14T11:11:47;74770.16;;;-145.32;100.00
14041;BME280;7095;51.388;6.196;2023-02-14T11:14:21;74514.09;;;-145.32;100.00
14041;BME280;7095;51.388;6.196;2023-02-14T11:16:50;66206.69;;;-145.32;100.00
14041;BME280;7095;51.388;6.196;2023-02-14T11:19:23;68757.91;;;-145.32;100.00
14041;BME280;7095;51.388;6.196;2023-02-14T11:21:53;65241.00;;;-145.32;100.00
14041;BME280;7095;51.388;6.196;2023-02-14T11:24:30;61699.81;;;-145.32;100.00
14041;BME280;7095;51.388;6.196;2023-02-14T11:27:00;61767.56;;;-145.32;100.00
14041;BME280;7095;51.388;6.196;2023-02-14T11:29:32;60739.41;;;-145.32;100.00
14041;BME280;7095;51.388;6.196;2023-02-14T11:32:07;59046.34;;;-145.32;100.00
14041;BME280;7095;51.388;6.196;2023-02-14T11:34:38;59034.41;;;-145.32;100.00
14041;BME280;7095;51.388;6.196;2023-02-14T11:37:24;60002.31;;;-145.32;100.00
14041;BME280;7095;51.388;6.196;2023-02-14T11:39:56;58237.97;;;-145.32;100.00
14041;BME280;7095;51.388;6.196;2023-02-14T11:42:38;58241.97;;;-145.32;100.00
14041;BME280;7095;51.388;6.196;2023-02-14T11:45:26;58347.47;;;-145.32;100.00
14041;BME280;7095;51.388;6.196;2023-02-14T11:48:15;58226.03;;;-145.32;100.00
14041;BME280;7095;51.388;6.196;2023-02-14T11:51:00;58409.19;;;-145.32;100.00
14041;BME280;7095;51.388;6.196;2023-02-14T11:53:38;58761.59;;;-145.32;100.00
14041;BME280;7095;51.388;6.196;2023-02-14T11:56:14;57423.81;;;-145.32;100.00
14041;BME280;7095;51.388;6.196;2023-02-14T11:58:47;57358.13;;;-145.32;100.00
14041;BME280;7095;51.388;6.196;2023-02-14T12:01:22;57388.00;;;-145.32;100.00
14041;BME280;7095;51.388;6.196;2023-02-14T12:03:53;57115.31;;;-145.32;100.00
14041;BME280;7095;51.388;6.196;2023-02-14T12:06:23;57105.38;;;-145.32;100.00
14041;BME280;7095;51.388;6.196;2023-02-14T12:09:09;56156.19;;;-145.32;100.00
14041;BME280;7095;51.388;6.196;2023-02-14T12:11:39;56203.94;;;-145.32;100.00
14041;BME280;7095;51.388;6.196;2023-02-14T12:14:20;56209.91;;;-145.32;100.00
14041;BME280;7095;51.388;6.196;2023-02-14T12:16:55;56299.44;;;-145.32;100.00
14041;BME280;7095;51.388;6.196;2023-02-14T12:19:33;56355.16;;;-145.32;100.00
14041;BME280;7095;51.388;6.196;2023-02-14T12:22:09;56466.59;;;-145.32;100.00
14041;BME280;7095;51.388;6.196;2023-02-14T12:24:45;56369.09;;;-145.32;100.00
14041;BME280;7095;51.388;6.196;2023-02-14T12:27:21;56235.78;;;-145.32;100.00
14041;BME280;7095;51.388;6.196;2023-02-14T12:29:53;56066.66;;;-145.32;100.00
14041;BME280;7095;51.388;6.196;2023-02-14T12:32:28;55989.06;;;-145.32;100.00
14041;BME280;7095;51.388;6.196;2023-02-14T12:35:03;56315.38;;;-145.32;100.00
14041;BME280;7095;51.388;6.196;2023-02-14T12:37:41;55706.56;;;-145.32;100.00
14041;BME280;7095;51.388;6.196;2023-02-14T12:40:29;55879.66;;;-145.32;100.00
14041;BME280;7095;51.388;6.196;2023-02-14T12:43:38;55348.50;;;-145.32;100.00
14041;BME280;7095;51.388;6.196;2023-02-14T12:46:20;55272.91;;;-145.32;100.00
14041;BME280;7095;51.388;6.196;2023-02-14T12:51:46;55260.97;;;-145.32;100.00
14041;BME280;7095;51.388;6.196;2023-02-14T12:54:30;55030.25;;;-145.32;100.00
14041;BME280;7095;51.388;6.196;2023-02-14T12:57:11;54918.88;;;-145.32;100.00
14041;BME280;7095;51.388;6.196;2023-02-14T12:59:55;54895.00;;;-145.32;100.00
14041;BME280;7095;51.388;6.196;2023-02-14T13:02:43;54763.75;;;-145.32;100.00
14041;BME280;7095;51.388;6.196;2023-02-14T13:05:21;54731.94;;;-145.32;100.00
14041;BME280;7095;51.388;6.196;2023-02-14T13:08:11;54755.78;;;-145.32;100.00
14041;BME280;7095;51.388;6.196;2023-02-14T13:10:51;54658.34;;;-145.32;100.00
14041;BME280;7095;51.388;6.196;2023-02-14T13:13:29;54646.41;;;-145.32;100.00
14041;BME280;7095;51.388;6.196;2023-02-14T13:16:09;54473.41;;;-145.32;100.00
14041;BME280;7095;51.388;6.196;2023-02-14T13:18:48;54401.81;;;-145.32;100.00